Time;durP1;ratioP1;P1;durP2;ratioP2;P2;SDS_P1;SDS_P2;PMS_P1;PMS_P2;Temp;Humidity;BMP_temperature;BMP_pressure;BME280_temperature;BME280_humidity;BME280_pressure;Samples;Min_cycle;Max_cycle;Signal;HPM_P1;HPM_P2
2023/10/22 00:02:11;;;;;;;5.95;1.70;;;13.70;99.90;;;;;;5092338;28;20108;-66
2023/10/22 00:04:40;;;;;;;4.75;1.80;;;13.60;99.90;;;;;;5091902;28;20051;-64
2023/10/22 00:07:07;;;;;;;3.88;1.35;;;13.70;99.90;;;;;;5098128;28;20062;-65
2023/10/22 00:09:34;;;;;;;5.07;1.45;;;13.60;99.90;;;;;;5112367;28;20050;-64
2023/10/22 00:12:00;;;;;;;7.15;1.70;;;13.60;99.90;;;;;;5112779;28;20055;-63
2023/10/22 00:14:27;;;;;;;7.30;1.40;;;13.70;99.90;;;;;;5112281;28;20051;-66
2023/10/22 00:16:53;;;;;;;3.70;1.50;;;13.70;99.90;;;;;;5090065;28;20056;-64
2023/10/22 00:19:19;;;;;;;5.47;1.58;;;13.70;99.90;;;;;;5092300;28;20274;-64
2023/10/22 00:21:46;;;;;;;5.18;1.55;;;13.70;99.90;;;;;;5075622;28;20070;-64
2023/10/22 00:24:12;;;;;;;4.75;2.00;;;13.70;99.90;;;;;;5091970;28;20113;-65
2023/10/22 00:26:39;;;;;;;3.30;1.52;;;13.60;99.90;;;;;;5094236;27;20058;-65
2023/10/22 00:29:06;;;;;;;5.10;1.35;;;13.60;99.90;;;;;;5099326;27;20061;-65
2023/10/22 00:31:32;;;;;;;5.18;1.50;;;13.60;99.90;;;;;;5116436;27;20423;-65
2023/10/22 00:33:59;;;;;;;5.53;1.63;;;13.40;99.90;;;;;;5116023;27;20509;-65
2023/10/22 00:36:25;;;;;;;6.60;1.80;;;13.40;99.90;;;;;;5115180;27;20352;-64
2023/10/22 00:38:51;;;;;;;4.63;1.50;;;13.30;99.90;;;;;;5074888;28;20066;-66
2023/10/22 00:41:18;;;;;;;1.83;1.00;;;13.20;99.90;;;;;;5075664;28;20048;-66
2023/10/22 00:43:44;;;;;;;4.32;1.17;;;13.20;99.90;;;;;;5093470;27;20353;-63
2023/10/22 00:46:24;;;;;;;4.35;1.40;;;13.10;99.90;;;;;;5115892;27;20418;-64
2023/10/22 00:48:52;;;;;;;6.47;1.38;;;13.10;99.90;;;;;;5110835;27;20463;-65
2023/10/22 00:51:19;;;;;;;4.00;1.38;;;13.00;99.90;;;;;;5115682;27;20047;-65
2023/10/22 00:53:47;;;;;;;6.72;1.25;;;12.90;99.90;;;;;;5099125;27;20346;-67
2023/10/22 00:56:14;;;;;;;4.10;1.55;;;12.80;99.90;;;;;;5115764;27;20489;-66
2023/10/22 00:58:42;;;;;;;3.75;1.38;;;12.70;99.90;;;;;;5078971;28;20051;-65
2023/10/22 01:01:10;;;;;;;3.63;1.52;;;12.60;99.90;;;;;;5095257;28;20047;-65
2023/10/22 01:03:37;;;;;;;4.88;1.42;;;12.40;99.90;;;;;;5095126;28;20044;-64
2023/10/22 01:06:04;;;;;;;7.35;1.80;;;12.30;99.90;;;;;;5094841;28;20048;-66
2023/10/22 01:08:35;;;;;;;5.00;1.60;;;12.30;99.90;;;;;;5112524;27;20555;-64
2023/10/22 01:11:05;;;;;;;4.82;1.90;;;12.20;99.90;;;;;;5115483;27;20101;-64
2023/10/22 01:13:31;;;;;;;3.67;1.58;;;12.40;99.90;;;;;;5115583;27;20444;-63
2023/10/22 01:15:58;;;;;;;3.22;1.38;;;12.20;99.90;;;;;;5115292;27;20050;-64
2023/10/22 01:18:24;;;;;;;4.90;1.42;;;12.10;99.90;;;;;;5081103;28;20059;-64
2023/10/22 01:20:51;;;;;;;4.47;1.70;;;12.00;99.90;;;;;;5094684;28;20375;-64
2023/10/22 01:23:17;;;;;;;3.35;1.45;;;12.20;99.90;;;;;;5078214;28;20070;-66
2023/10/22 01:25:43;;;;;;;5.45;1.48;;;12.30;99.90;;;;;;5094820;28;20059;-64
2023/10/22 01:28:10;;;;;;;5.78;1.30;;;12.20;99.90;;;;;;5095026;28;20607;-65
2023/10/22 01:30:36;;;;;;;4.90;1.30;;;12.30;99.90;;;;;;5094468;28;20404;-63
2023/10/22 01:33:02;;;;;;;4.45;1.48;;;12.30;99.90;;;;;;5094874;28;20051;-62
2023/10/22 01:35:29;;;;;;;3.10;1.23;;;12.10;99.90;;;;;;5094203;28;20071;-63
2023/10/22 01:37:55;;;;;;;3.47;1.50;;;12.30;99.90;;;;;;5106357;27;20053;-63
2023/10/22 01:40:21;;;;;;;4.82;1.40;;;12.20;99.90;;;;;;5114889;27;20059;-64
2023/10/22 01:42:48;;;;;;;3.17;1.30;;;12.10;99.90;;;;;;5114675;27;20343;-66
2023/10/22 01:45:14;;;;;;;3.95;1.33;;;12.30;99.90;;;;;;5114789;27;20047;-66
2023/10/22 01:47:41;;;;;;;3.72;1.42;;;12.10;99.90;;;;;;5104016;28;20338;-67
2023/10/22 01:50:07;;;;;;;3.80;1.70;;;12.10;99.90;;;;;;5094360;28;20054;-64
2023/10/22 01:52:34;;;;;;;4.28;1.60;;;12.30;99.90;;;;;;5094226;28;20087;-66
2023/10/22 01:55:00;;;;;;;4.60;1.40;;;12.10;99.90;;;;;;5077253;28;20047;-63
2023/10/22 01:57:26;;;;;;;3.15;1.58;;;12.10;99.90;;;;;;5085178;27;20065;-67
2023/10/22 01:59:52;;;;;;;3.50;1.58;;;12.20;99.90;;;;;;5114538;27;20051;-65
2023/10/22 02:02:19;;;;;;;4.22;1.63;;;12.20;99.90;;;;;;5114769;27;20155;-64
2023/10/22 02:04:45;;;;;;;3.85;1.38;;;12.20;99.90;;;;;;5097429;27;20039;-66
2023/10/22 02:07:11;;;;;;;3.55;1.30;;;12.00;99.90;;;;;;5107719;28;20089;-65
2023/10/22 02:09:38;;;;;;;4.47;1.45;;;12.30;99.90;;;;;;5093998;28;20058;-65
2023/10/22 02:12:05;;;;;;;5.22;1.45;;;12.00;99.90;;;;;;5094223;28;20055;-65
2023/10/22 02:14:31;;;;;;;3.83;1.55;;;12.30;99.90;;;;;;5094063;28;20297;-66
2023/10/22 02:16:57;;;;;;;3.83;1.33;;;12.20;99.90;;;;;;5097570;27;20075;-63
2023/10/22 02:19:23;;;;;;;3.28;1.25;;;12.30;99.90;;;;;;5097704;27;20386;-66
2023/10/22 02:21:52;;;;;;;3.10;1.35;;;12.30;99.90;;;;;;5114311;27;20375;-65
2023/10/22 02:24:19;;;;;;;4.80;1.48;;;12.40;99.90;;;;;;5114326;27;20051;-64
2023/10/22 02:26:46;;;;;;;4.03;1.50;;;12.40;99.90;;;;;;5111514;27;20065;-65
2023/10/22 02:29:13;;;;;;;3.00;1.70;;;12.20;99.90;;;;;;5093613;28;20512;-66
2023/10/22 02:31:42;;;;;;;4.57;1.50;;;12.30;99.90;;;;;;5093696;28;20043;-64
2023/10/22 02:34:09;;;;;;;4.20;1.90;;;12.30;99.90;;;;;;5076532;28;20115;-64
2023/10/22 02:36:35;;;;;;;3.25;1.63;;;12.30;99.90;;;;;;5093466;27;20062;-66
2023/10/22 02:39:04;;;;;;;3.08;1.55;;;12.60;99.90;;;;;;5113675;27;20055;-64
2023/10/22 02:41:30;;;;;;;3.70;1.60;;;12.50;99.90;;;;;;5113961;27;20392;-63
2023/10/22 02:43:58;;;;;;;2.28;1.33;;;12.30;99.90;;;;;;5096542;27;20043;-64
2023/10/22 02:46:24;;;;;;;3.25;1.70;;;12.50;99.90;;;;;;5113004;27;20069;-64
2023/10/22 02:48:50;;;;;;;2.58;1.33;;;12.50;99.90;;;;;;5076816;28;20047;-64
2023/10/22 02:51:17;;;;;;;4.60;1.52;;;12.30;99.90;;;;;;5092461;28;20056;-66
2023/10/22 02:53:43;;;;;;;4.55;1.40;;;12.60;99.90;;;;;;5093427;28;20368;-64
2023/10/22 02:56:10;;;;;;;5.15;1.85;;;12.40;99.90;;;;;;5093256;28;20055;-65
2023/10/22 02:58:38;;;;;;;3.10;1.50;;;12.40;99.90;;;;;;5110218;27;20146;-63
2023/10/22 03:01:05;;;;;;;4.15;1.67;;;12.40;99.90;;;;;;5096283;27;20502;-67
2023/10/22 03:03:38;;;;;;;4.55;1.73;;;12.40;99.90;;;;;;5113241;27;20043;-64
2023/10/22 03:06:11;;;;;;;4.03;1.73;;;12.60;99.90;;;;;;5113034;27;20054;-65
2023/10/22 03:08:39;;;;;;;3.13;1.70;;;12.30;99.90;;;;;;5094832;28;20516;-66
2023/10/22 03:11:13;;;;;;;4.55;2.05;;;12.30;99.90;;;;;;5092760;28;20051;-65
2023/10/22 03:13:39;;;;;;;4.15;2.08;;;12.60;99.90;;;;;;5092886;28;20416;-64
2023/10/22 03:16:15;;;;;;;3.20;2.00;;;12.30;99.90;;;;;;5076135;28;20070;-65
2023/10/22 03:18:44;;;;;;;3.55;1.88;;;12.60;99.90;;;;;;5110912;27;20395;-64
2023/10/22 03:21:16;;;;;;;4.07;1.90;;;12.30;99.90;;;;;;5112883;28;20053;-63
2023/10/22 03:23:43;;;;;;;3.10;1.85;;;12.30;99.90;;;;;;5113639;27;20464;-64
2023/10/22 03:26:15;;;;;;;4.30;2.10;;;12.20;99.90;;;;;;5112753;28;20043;-65
2023/10/22 03:28:46;;;;;;;4.10;1.60;;;12.50;99.90;;;;;;5094337;28;20048;-66
2023/10/22 03:31:13;;;;;;;3.55;1.90;;;12.20;99.90;;;;;;5075852;28;20532;-66
2023/10/22 03:33:39;;;;;;;3.70;1.70;;;12.30;99.90;;;;;;5092636;28;20469;-64
2023/10/22 03:36:09;;;;;;;3.40;1.73;;;12.30;99.90;;;;;;5092356;28;20078;-66
2023/10/22 03:38:36;;;;;;;2.70;1.60;;;12.20;99.90;;;;;;5092669;28;20341;-66
2023/10/22 03:41:03;;;;;;;2.58;1.63;;;12.10;99.90;;;;;;5112996;28;20065;-63
2023/10/22 03:43:31;;;;;;;4.32;1.83;;;12.10;99.90;;;;;;5112779;28;20481;-66
2023/10/22 03:45:58;;;;;;;4.25;2.05;;;12.20;99.90;;;;;;5112513;28;20039;-64
2023/10/22 03:48:26;;;;;;;3.65;2.10;;;12.20;99.90;;;;;;5096765;28;20056;-66
2023/10/22 03:50:53;;;;;;;4.85;2.92;;;12.40;99.90;;;;;;5092417;28;20048;-64
2023/10/22 03:53:21;;;;;;;3.22;1.88;;;12.30;99.90;;;;;;5092485;28;20051;-65
2023/10/22 03:55:48;;;;;;;3.97;1.85;;;12.50;99.90;;;;;;5075396;28;20054;-67
2023/10/22 03:58:15;;;;;;;5.82;2.03;;;12.20;99.90;;;;;;5106013;28;20055;-65
2023/10/22 04:00:41;;;;;;;2.72;1.90;;;12.20;99.90;;;;;;5096004;27;20059;-65
2023/10/22 04:03:07;;;;;;;3.67;2.40;;;12.30;99.90;;;;;;5116916;27;20545;-65
2023/10/22 04:05:33;;;;;;;3.42;2.00;;;12.20;99.90;;;;;;5116528;27;20363;-65
2023/10/22 04:07:59;;;;;;;3.67;1.60;;;12.20;99.90;;;;;;5104297;28;20083;-64
2023/10/22 04:10:26;;;;;;;5.13;2.10;;;12.50;99.90;;;;;;5096158;28;20631;-64
2023/10/22 04:12:52;;;;;;;4.70;1.95;;;12.30;99.90;;;;;;5079548;28;20047;-65
2023/10/22 04:15:19;;;;;;;2.28;1.38;;;12.20;99.90;;;;;;5079445;28;20051;-65
2023/10/22 04:17:49;;;;;;;2.42;1.48;;;12.40;99.90;;;;;;5088576;27;20055;-65
2023/10/22 04:20:15;;;;;;;1.58;1.40;;;12.30;99.90;;;;;;5116186;27;20502;-66
2023/10/22 04:22:42;;;;;;;1.63;1.40;;;12.30;99.90;;;;;;5116239;27;20059;-63
2023/10/22 04:25:09;;;;;;;2.47;2.00;;;12.30;99.90;;;;;;5115937;27;20051;-64
2023/10/22 04:27:36;;;;;;;1.52;1.20;;;12.30;99.90;;;;;;5107245;28;20044;-64
2023/10/22 04:30:04;;;;;;;1.63;1.45;;;12.30;99.90;;;;;;5095853;28;20061;-65
2023/10/22 04:32:34;;;;;;;1.95;1.13;;;12.30;99.90;;;;;;5078874;28;20051;-65
2023/10/22 04:35:01;;;;;;;2.17;1.30;;;12.60;99.90;;;;;;5078805;28;20048;-64
2023/10/22 04:37:27;;;;;;;1.40;1.30;;;12.60;99.90;;;;;;5102232;27;20043;-65
2023/10/22 04:39:56;;;;;;;2.20;1.25;;;12.30;99.90;;;;;;5116137;27;20047;-65
2023/10/22 04:42:23;;;;;;;2.58;1.38;;;12.60;99.90;;;;;;5116219;27;20051;-64
2023/10/22 04:44:49;;;;;;;2.50;1.50;;;12.40;99.90;;;;;;5098719;27;20376;-65
2023/10/22 04:47:16;;;;;;;1.92;1.38;;;12.70;99.90;;;;;;5110414;28;20410;-63
2023/10/22 04:49:44;;;;;;;1.80;1.33;;;12.40;99.90;;;;;;5078988;28;20039;-67
2023/10/22 04:52:30;;;;;;;1.90;1.50;;;12.70;99.90;;;;;;5095109;28;20048;-64
2023/10/22 04:54:58;;;;;;;3.03;1.63;;;12.50;99.90;;;;;;5095681;28;20059;-64
2023/10/22 04:57:26;;;;;;;2.97;1.80;;;12.70;99.90;;;;;;5101260;27;20451;-67
2023/10/22 04:59:53;;;;;;;2.22;1.80;;;12.50;99.90;;;;;;5115924;27;20054;-67
2023/10/22 05:02:20;;;;;;;2.00;1.65;;;12.80;99.90;;;;;;5115690;27;20043;-68
2023/10/22 05:04:47;;;;;;;2.47;1.20;;;12.90;99.90;;;;;;5115893;27;20234;-65
2023/10/22 05:07:14;;;;;;;2.65;1.25;;;12.60;99.90;;;;;;5109934;28;20039;-64
2023/10/22 05:09:41;;;;;;;2.75;1.25;;;12.60;99.90;;;;;;5078876;28;20061;-65
2023/10/22 05:12:07;;;;;;;2.88;1.13;;;12.90;99.90;;;;;;5095174;28;20051;-62
2023/10/22 05:14:33;;;;;;;3.20;1.23;;;12.90;99.90;;;;;;5094477;28;20043;-63
2023/10/22 05:17:00;;;;;;;4.28;1.45;;;12.90;99.90;;;;;;5080547;27;20046;-65
2023/10/22 05:19:26;;;;;;;3.85;1.52;;;12.50;99.90;;;;;;5115513;27;20074;-65
2023/10/22 05:21:52;;;;;;;4.00;1.65;;;12.80;99.90;;;;;;5114978;27;20059;-64
2023/10/22 05:24:19;;;;;;;4.72;1.55;;;12.80;99.90;;;;;;5115706;27;20390;-63
2023/10/22 05:26:45;;;;;;;4.32;1.63;;;12.80;99.90;;;;;;5114194;27;20051;-63
2023/10/22 05:29:11;;;;;;;4.07;2.00;;;12.50;99.90;;;;;;5094960;28;20043;-64
2023/10/22 05:31:37;;;;;;;2.65;1.63;;;12.40;99.90;;;;;;5077977;28;20047;-66
2023/10/22 05:34:05;;;;;;;3.45;1.70;;;12.50;99.90;;;;;;5094838;28;20463;-66
2023/10/22 05:36:31;;;;;;;4.57;1.83;;;12.00;99.90;;;;;;5093974;28;20052;-65
2023/10/22 05:38:58;;;;;;;4.57;2.50;;;11.90;99.90;;;;;;5114069;27;20105;-65
2023/10/22 05:41:26;;;;;;;6.63;2.28;;;11.70;99.90;;;;;;5114868;27;20475;-65
2023/10/22 05:44:01;;;;;;;5.13;2.22;;;11.70;99.90;;;;;;5114772;27;20061;-65
2023/10/22 05:46:30;;;;;;;6.90;2.95;;;11.90;99.90;;;;;;5114273;27;20405;-65
2023/10/22 05:48:56;;;;;;;3.63;2.40;;;11.80;99.90;;;;;;5078743;28;20040;-63
2023/10/22 05:51:23;;;;;;;4.53;2.33;;;11.70;99.90;;;;;;5094650;28;20117;-66
2023/10/22 05:53:49;;;;;;;4.57;2.90;;;11.80;99.90;;;;;;5085259;28;20052;-63
2023/10/22 05:56:16;;;;;;;6.93;2.60;;;11.80;99.90;;;;;;5083644;28;20096;-65
2023/10/22 05:58:43;;;;;;;6.55;3.03;;;11.50;99.90;;;;;;5070771;28;20044;-62
2023/10/22 06:01:10;;;;;;;8.23;3.33;;;11.40;99.90;;;;;;5085089;28;20126;-64
2023/10/22 06:03:36;;;;;;;5.38;3.42;;;11.40;99.90;;;;;;5066877;28;20435;-67
2023/10/22 06:06:03;;;;;;;4.97;3.63;;;11.80;99.90;;;;;;5065341;28;20039;-65
2023/10/22 06:08:29;;;;;;;5.32;3.63;;;11.50;99.90;;;;;;5068876;28;20054;-63
2023/10/22 06:10:55;;;;;;;5.18;3.70;;;11.80;99.90;;;;;;5082524;28;20055;-65
2023/10/22 06:13:22;;;;;;;6.45;3.90;;;11.50;99.90;;;;;;5073893;28;20056;-66
2023/10/22 06:15:48;;;;;;;6.55;2.75;;;11.80;99.90;;;;;;5056931;28;20051;-64
2023/10/22 06:18:14;;;;;;;6.00;2.72;;;11.80;99.90;;;;;;5099955;27;20047;-64
2023/10/22 06:20:41;;;;;;;8.40;2.92;;;11.80;99.90;;;;;;5097371;27;20435;-66
2023/10/22 06:23:08;;;;;;;5.43;3.13;;;11.60;99.90;;;;;;5114395;27;20099;-65
2023/10/22 06:25:34;;;;;;;7.13;2.78;;;11.70;99.90;;;;;;5096013;27;20126;-64
2023/10/22 06:28:01;;;;;;;5.47;2.53;;;11.70;99.90;;;;;;5102793;28;20463;-63
2023/10/22 06:30:28;;;;;;;4.57;2.78;;;11.50;99.90;;;;;;5093750;28;20089;-64
2023/10/22 06:32:55;;;;;;;5.47;2.85;;;11.70;99.90;;;;;;5094127;28;20404;-63
2023/10/22 06:35:26;;;;;;;4.45;2.22;;;11.50;99.90;;;;;;5076414;28;20069;-63
2023/10/22 06:37:53;;;;;;;3.67;2.28;;;11.70;99.90;;;;;;5102400;27;20043;-64
2023/10/22 06:40:23;;;;;;;4.05;2.40;;;11.70;99.90;;;;;;5113987;27;20364;-64
2023/10/22 06:42:50;;;;;;;4.20;2.30;;;11.40;99.90;;;;;;5114051;27;20047;-65
2023/10/22 06:45:17;;;;;;;5.40;2.35;;;11.70;99.90;;;;;;5113783;27;20047;-63
2023/10/22 06:47:43;;;;;;;6.70;2.60;;;11.50;99.90;;;;;;5084554;28;20113;-63
2023/10/22 06:50:14;;;;;;;5.00;2.10;;;11.70;99.90;;;;;;5073297;28;20495;-64
2023/10/22 06:52:42;;;;;;;5.50;2.35;;;11.50;99.90;;;;;;5073160;28;20044;-63
2023/10/22 06:55:09;;;;;;;4.55;2.10;;;11.80;99.90;;;;;;5072753;28;20048;-65
2023/10/22 06:57:36;;;;;;;6.50;2.55;;;11.40;99.90;;;;;;5087409;27;20043;-62
2023/10/22 07:00:02;;;;;;;4.93;2.22;;;11.50;99.90;;;;;;5113588;27;20047;-63
2023/10/22 07:02:28;;;;;;;4.15;2.45;;;11.70;99.90;;;;;;5113811;27;20246;-66
2023/10/22 07:04:56;;;;;;;5.47;3.00;;;11.60;99.90;;;;;;5113218;27;20463;-63
2023/10/22 07:07:23;;;;;;;7.03;2.42;;;11.80;99.90;;;;;;5111974;27;20393;-63
2023/10/22 07:09:50;;;;;;;6.78;3.13;;;11.60;99.90;;;;;;5113598;27;20051;-64
2023/10/22 07:12:17;;;;;;;4.88;2.50;;;11.50;99.90;;;;;;5098999;28;20075;-65
2023/10/22 07:14:43;;;;;;;5.60;2.60;;;11.80;99.90;;;;;;5091475;28;20066;-64
2023/10/22 07:17:10;;;;;;;5.38;2.42;;;11.60;99.90;;;;;;5095024;27;20327;-65
2023/10/22 07:19:36;;;;;;;5.53;2.63;;;11.50;99.90;;;;;;5113623;27;20115;-64
2023/10/22 07:22:03;;;;;;;3.72;2.60;;;11.60;99.90;;;;;;5112949;27;20051;-64
2023/10/22 07:24:30;;;;;;;5.63;2.83;;;11.70;99.90;;;;;;5113234;27;20047;-64
2023/10/22 07:26:56;;;;;;;6.68;2.90;;;11.90;99.90;;;;;;5110873;27;20050;-64
2023/10/22 07:29:23;;;;;;;6.15;2.88;;;11.80;99.90;;;;;;5075834;28;20047;-66
2023/10/22 07:31:51;;;;;;;5.35;3.45;;;11.60;99.90;;;;;;5076405;28;20047;-65
2023/10/22 07:34:18;;;;;;;6.88;2.55;;;11.70;99.90;;;;;;5074834;28;20519;-63
2023/10/22 07:36:44;;;;;;;5.85;3.15;;;11.90;99.90;;;;;;5086261;28;20048;-64
2023/10/22 07:39:12;;;;;;;7.97;3.03;;;11.90;99.90;;;;;;5094123;28;20134;-65
2023/10/22 07:41:38;;;;;;;4.43;3.08;;;11.70;99.90;;;;;;5076538;28;20040;-65
2023/10/22 07:44:05;;;;;;;5.82;3.50;;;12.00;99.90;;;;;;5086948;28;20072;-62
2023/10/22 07:46:31;;;;;;;7.80;3.42;;;12.10;99.90;;;;;;5088118;28;20044;-65
2023/10/22 07:48:57;;;;;;;7.63;3.40;;;11.80;99.90;;;;;;5087530;28;20361;-65
2023/10/22 07:51:26;;;;;;;7.05;3.60;;;12.10;99.90;;;;;;5088309;28;20055;-63
2023/10/22 07:53:52;;;;;;;5.97;3.70;;;11.90;99.90;;;;;;5088762;28;20463;-64
2023/10/22 07:56:18;;;;;;;7.80;4.28;;;11.80;99.90;;;;;;5088722;28;20063;-64
2023/10/22 07:58:45;;;;;;;7.82;3.92;;;11.80;99.90;;;;;;5069241;28;20494;-67
2023/10/22 08:01:11;;;;;;;6.00;3.38;;;12.20;99.90;;;;;;5088556;28;20052;-63
2023/10/22 08:03:38;;;;;;;6.70;3.17;;;12.00;99.90;;;;;;5088802;28;20055;-65
2023/10/22 08:06:04;;;;;;;6.38;3.35;;;11.90;99.90;;;;;;5088120;28;20051;-65
2023/10/22 08:08:31;;;;;;;6.35;3.40;;;12.00;99.90;;;;;;5084205;28;20040;-64
2023/10/22 08:10:58;;;;;;;8.15;3.38;;;12.30;99.90;;;;;;5085982;28;20052;-66
2023/10/22 08:13:25;;;;;;;5.60;3.33;;;12.30;99.90;;;;;;5088938;28;20050;-66
2023/10/22 08:15:53;;;;;;;5.63;4.05;;;12.60;99.90;;;;;;5071855;28;20379;-63
2023/10/22 08:18:19;;;;;;;5.90;3.30;;;12.50;99.90;;;;;;5076000;28;20074;-64
2023/10/22 08:20:46;;;;;;;6.10;3.65;;;12.40;99.90;;;;;;5081989;28;20063;-64
2023/10/22 08:23:12;;;;;;;10.18;4.53;;;12.40;99.90;;;;;;5088468;28;20082;-64
2023/10/22 08:25:39;;;;;;;6.40;2.92;;;12.50;99.90;;;;;;5084708;28;20055;-65
2023/10/22 08:28:05;;;;;;;7.28;4.00;;;12.50;99.90;;;;;;5072725;28;20059;-65
2023/10/22 08:30:31;;;;;;;5.82;3.58;;;12.80;99.90;;;;;;5087642;28;20126;-65
2023/10/22 08:32:57;;;;;;;4.47;3.20;;;12.60;99.90;;;;;;5070601;28;20519;-64
2023/10/22 08:35:24;;;;;;;5.93;3.40;;;12.60;99.90;;;;;;5085449;28;20044;-67
2023/10/22 08:37:50;;;;;;;7.47;3.90;;;12.40;99.90;;;;;;5085974;28;20044;-65
2023/10/22 08:40:17;;;;;;;8.95;3.55;;;12.70;99.90;;;;;;5087693;28;20063;-66
2023/10/22 08:42:45;;;;;;;6.38;3.55;;;12.70;99.90;;;;;;5089907;28;20044;-64
2023/10/22 08:45:11;;;;;;;6.07;3.25;;;12.40;99.90;;;;;;5090899;28;20043;-64
2023/10/22 08:47:37;;;;;;;5.80;3.65;;;12.70;99.90;;;;;;5088629;28;20043;-64
2023/10/22 08:50:10;;;;;;;6.78;3.58;;;12.40;99.90;;;;;;5112795;28;20054;-66
2023/10/22 08:52:36;;;;;;;5.43;2.97;;;12.80;99.90;;;;;;5094786;28;20059;-65
2023/10/22 08:55:03;;;;;;;7.07;3.80;;;12.60;99.90;;;;;;5094562;28;20035;-63
2023/10/22 08:57:30;;;;;;;5.30;3.17;;;12.80;99.90;;;;;;5100284;27;20061;-63
2023/10/22 08:59:57;;;;;;;6.15;3.85;;;12.60;99.90;;;;;;5115783;27;20054;-67
2023/10/22 09:02:26;;;;;;;4.82;4.03;;;12.70;99.90;;;;;;5116014;27;20051;-63
2023/10/22 09:04:54;;;;;;;5.50;3.75;;;12.70;99.90;;;;;;5096479;28;20468;-65
2023/10/22 09:07:50;;;;;;;7.57;4.45;;;12.90;99.90;;;;;;5094994;27;20468;-64
2023/10/22 09:10:28;;;;;;;5.63;3.47;;;13.30;99.90;;;;;;5093665;28;20047;-63
2023/10/22 09:13:07;;;;;;;5.38;3.50;;;13.20;99.90;;;;;;5094074;28;20460;-63
2023/10/22 09:15:37;;;;;;;5.40;3.50;;;13.20;99.90;;;;;;5092610;28;20101;-63
2023/10/22 09:18:04;;;;;;;7.68;3.70;;;13.40;99.90;;;;;;5083228;28;20120;-65
2023/10/22 09:20:30;;;;;;;5.93;3.65;;;13.60;99.90;;;;;;5093500;28;20059;-63
2023/10/22 09:23:20;;;;;;;8.25;3.85;;;13.50;99.90;;;;;;5093388;28;20503;-65
2023/10/22 09:25:55;;;;;;;6.18;3.47;;;13.60;99.90;;;;;;5092150;28;20059;-65
2023/10/22 09:28:24;;;;;;;5.45;4.40;;;13.70;99.90;;;;;;5093556;28;21059;-66
2023/10/22 09:30:58;;;;;;;7.82;4.50;;;13.80;99.90;;;;;;5094370;28;20092;-65
2023/10/22 09:33:37;;;;;;;4.93;4.05;;;13.80;99.90;;;;;;5092520;28;20048;-65
2023/10/22 09:36:13;;;;;;;7.00;4.70;;;13.70;99.90;;;;;;5093348;28;20059;-65
2023/10/22 09:38:46;;;;;;;6.18;4.38;;;13.90;99.90;;;;;;5108759;27;20375;-65
2023/10/22 09:41:27;;;;;;;5.05;3.85;;;14.10;99.90;;;;;;5114300;27;20070;-65
2023/10/22 09:43:55;;;;;;;5.32;3.55;;;14.10;99.90;;;;;;5097636;27;20464;-66
2023/10/22 09:46:26;;;;;;;5.72;4.00;;;14.10;99.90;;;;;;5114020;27;20043;-66
2023/10/22 09:48:57;;;;;;;6.60;3.90;;;14.40;99.90;;;;;;5098230;28;20043;-66
2023/10/22 09:51:28;;;;;;;6.32;4.05;;;14.40;99.90;;;;;;5092483;28;20067;-65
2023/10/22 09:53:56;;;;;;;5.50;3.42;;;14.50;99.90;;;;;;5094230;27;20470;-64
2023/10/22 09:56:23;;;;;;;5.82;4.22;;;14.50;99.90;;;;;;5095626;27;20082;-66
2023/10/22 09:58:59;;;;;;;5.55;3.85;;;14.50;99.90;;;;;;5096340;28;20054;-63
2023/10/22 10:01:29;;;;;;;7.10;3.88;;;14.50;99.90;;;;;;5092822;28;20112;-66
2023/10/22 10:03:59;;;;;;;7.60;3.83;;;14.20;99.90;;;;;;5092273;28;20312;-66
2023/10/22 10:06:26;;;;;;;6.72;3.40;;;14.20;99.90;;;;;;5093440;28;20048;-65
2023/10/22 10:08:52;;;;;;;7.30;4.15;;;14.10;99.90;;;;;;5110047;27;20104;-66
2023/10/22 10:11:20;;;;;;;6.95;4.25;;;14.00;99.90;;;;;;5114427;27;20350;-65
2023/10/22 10:13:47;;;;;;;8.77;4.15;;;13.90;99.90;;;;;;5114160;27;20051;-67
2023/10/22 10:16:13;;;;;;;6.47;4.28;;;14.00;99.90;;;;;;5114079;27;20043;-65
2023/10/22 10:19:02;;;;;;;6.00;3.85;;;14.00;99.90;;;;;;5099639;28;20173;-66
2023/10/22 10:21:36;;;;;;;5.47;3.22;;;14.00;99.90;;;;;;5094078;28;20043;-65
2023/10/22 10:24:14;;;;;;;5.53;3.78;;;14.10;99.90;;;;;;5092808;28;20055;-65
2023/10/22 10:26:41;;;;;;;7.30;3.30;;;14.10;99.90;;;;;;5091100;28;20455;-64
2023/10/22 10:29:07;;;;;;;4.88;2.88;;;13.90;99.90;;;;;;5111480;27;20111;-67
2023/10/22 10:31:33;;;;;;;6.75;3.80;;;13.90;99.90;;;;;;5097179;27;20043;-66
2023/10/22 10:34:01;;;;;;;6.70;2.90;;;13.90;99.90;;;;;;5113885;27;20049;-65
2023/10/22 10:36:28;;;;;;;4.13;2.50;;;14.00;99.90;;;;;;5113077;27;20523;-65
2023/10/22 10:39:33;;;;;;;4.65;2.70;;;13.90;99.90;;;;;;5097002;28;20048;-63
2023/10/22 10:41:59;;;;;;;6.05;3.30;;;14.10;99.90;;;;;;5093534;28;20056;-65
2023/10/22 10:44:29;;;;;;;3.67;2.90;;;14.20;99.90;;;;;;5093073;28;20059;-66
2023/10/22 10:47:21;;;;;;;4.05;2.45;;;14.30;99.90;;;;;;5092638;28;20043;-67
2023/10/22 10:50:03;;;;;;;4.47;2.50;;;14.30;99.90;;;;;;5083439;27;20145;-67
2023/10/22 10:52:42;;;;;;;4.32;2.65;;;14.30;99.90;;;;;;5113359;27;20050;-65
2023/10/22 10:55:27;;;;;;;5.05;2.00;;;14.20;99.90;;;;;;5113606;27;20046;-65
2023/10/22 10:57:55;;;;;;;5.82;1.98;;;14.20;99.90;;;;;;5105305;28;20062;-64
2023/10/22 11:00:26;;;;;;;3.83;1.80;;;14.00;99.90;;;;;;5093331;28;20061;-66
2023/10/22 11:02:53;;;;;;;;;;;14.00;99.90;;;;;;5076733;28;20411;-65
2023/10/22 11:05:31;;;;;;;3.67;2.15;;;14.00;99.90;;;;;;5093146;28;19919;-65
2023/10/22 11:07:58;;;;;;;2.67;1.75;;;13.90;99.90;;;;;;5075889;28;20485;-63
2023/10/22 11:10:28;;;;;;;3.25;1.70;;;13.90;99.90;;;;;;5092668;28;20135;-66
2023/10/22 11:13:01;;;;;;;5.40;2.10;;;13.90;99.90;;;;;;5093028;28;20054;-65
2023/10/22 11:15:35;;;;;;;2.50;1.60;;;13.90;99.90;;;;;;5076139;28;20212;-66
2023/10/22 11:18:03;;;;;;;3.65;2.03;;;13.90;99.90;;;;;;5100996;27;20395;-65
2023/10/22 11:20:30;;;;;;;2.50;1.35;;;14.00;99.90;;;;;;5113081;27;20096;-62
2023/10/22 11:22:57;;;;;;;4.03;1.60;;;14.00;99.90;;;;;;5112874;27;20495;-65
2023/10/22 11:25:25;;;;;;;3.33;1.70;;;14.00;99.90;;;;;;5112853;27;20061;-64
2023/10/22 11:27:52;;;;;;;3.25;1.70;;;13.90;99.90;;;;;;5105385;28;20039;-65
2023/10/22 11:30:54;;;;;;;2.88;1.40;;;13.90;99.90;;;;;;5092148;28;20059;-66
2023/10/22 11:33:28;;;;;;;5.43;1.90;;;14.00;99.90;;;;;;5037989;28;20048;-64
2023/10/22 11:35:57;;;;;;;3.63;2.00;;;14.10;99.90;;;;;;5088234;28;20060;-65
2023/10/22 11:38:25;;;;;;;3.97;1.88;;;14.10;99.90;;;;;;5082486;28;20067;-66
2023/10/22 11:40:55;;;;;;;3.47;1.95;;;14.10;99.90;;;;;;5091551;28;20138;-65
2023/10/22 11:43:26;;;;;;;5.53;2.10;;;14.20;99.90;;;;;;5092136;28;20121;-64
2023/10/22 11:45:56;;;;;;;4.57;2.15;;;14.10;99.90;;;;;;5091875;28;20077;-63
2023/10/22 11:48:29;;;;;;;3.42;1.52;;;14.10;99.90;;;;;;5093123;28;20062;-63
2023/10/22 11:51:01;;;;;;;2.85;1.58;;;14.20;99.90;;;;;;5092552;28;20039;-65
2023/10/22 11:53:41;;;;;;;4.90;2.10;;;14.20;99.90;;;;;;5092331;28;20044;-66
2023/10/22 11:56:07;;;;;;;4.70;1.60;;;14.20;99.90;;;;;;5091986;28;20062;-65
2023/10/22 11:58:33;;;;;;;3.10;1.35;;;14.30;99.90;;;;;;5105023;28;20134;-64
2023/10/22 12:01:00;;;;;;;3.55;1.63;;;14.30;99.90;;;;;;5112510;28;20059;-64
2023/10/22 12:03:26;;;;;;;3.03;1.63;;;14.30;99.90;;;;;;5110903;28;20470;-66
2023/10/22 12:05:52;;;;;;;56.63;10.30;;;14.30;99.90;;;;;;5110745;28;20174;-65
2023/10/22 12:08:18;;;;;;;7.93;2.35;;;14.30;99.90;;;;;;5101465;28;20039;-66
2023/10/22 12:10:45;;;;;;;3.90;1.80;;;14.30;99.90;;;;;;5092785;28;20055;-65
2023/10/22 12:13:12;;;;;;;3.65;1.50;;;14.20;99.90;;;;;;5075260;28;20116;-65
2023/10/22 12:15:38;;;;;;;2.58;1.73;;;14.20;99.90;;;;;;5074949;28;20066;-66
2023/10/22 12:18:06;;;;;;;4.13;2.00;;;14.10;99.90;;;;;;5083568;28;20055;-66
2023/10/22 12:20:33;;;;;;;3.42;2.00;;;14.10;99.90;;;;;;5095549;28;20051;-65
2023/10/22 12:22:59;;;;;;;7.68;2.22;;;14.10;99.90;;;;;;5110755;27;20047;-65
2023/10/22 12:25:30;;;;;;;4.22;1.70;;;14.10;99.90;;;;;;5095010;28;20078;-64
2023/10/22 12:27:56;;;;;;;3.38;1.45;;;14.00;99.90;;;;;;5097617;28;20051;-66
2023/10/22 12:30:23;;;;;;;2.85;1.60;;;14.10;99.90;;;;;;5094928;28;20052;-64
2023/10/22 12:32:50;;;;;;;3.78;1.63;;;14.10;99.90;;;;;;5089809;28;20058;-66
2023/10/22 12:35:16;;;;;;;2.95;1.70;;;14.10;99.90;;;;;;5095509;28;20055;-65
2023/10/22 12:37:42;;;;;;;4.15;1.70;;;14.20;99.90;;;;;;5096655;27;20062;-65
2023/10/22 12:40:09;;;;;;;6.00;1.85;;;14.30;99.90;;;;;;5096406;28;20055;-63
2023/10/22 12:42:40;;;;;;;3.05;2.28;;;14.30;99.90;;;;;;5095207;28;20464;-66
2023/10/22 12:45:09;;;;;;;3.22;1.90;;;14.20;99.90;;;;;;5095207;28;20289;-66
2023/10/22 12:47:35;;;;;;;3.53;1.73;;;14.30;99.90;;;;;;5099162;27;20058;-63
2023/10/22 12:50:04;;;;;;;4.38;1.60;;;14.30;99.90;;;;;;5106514;28;20039;-65
2023/10/22 12:52:30;;;;;;;3.03;1.52;;;14.30;99.90;;;;;;5092540;28;20044;-66
2023/10/22 12:54:56;;;;;;;3.72;1.70;;;14.30;99.90;;;;;;5094614;28;20073;-63